createdAt,value
2023-03-10T00:02:01.097Z,1.4
2023-03-10T00:07:55.531Z,1.1
2023-03-10T00:13:45.498Z,1
2023-03-10T00:19:36.758Z,0.8
2023-03-10T00:25:34.660Z,0.6
2023-03-10T00:31:31.405Z,0.5
2023-03-10T00:37:27.783Z,0.6
2023-03-10T00:43:33.540Z,0.6
2023-03-10T00:49:23.778Z,0.5
2023-03-10T00:55:18.744Z,0.4
2023-03-10T01:01:17.774Z,0.4
2023-03-10T01:07:12.881Z,0.5
2023-03-10T01:13:07.777Z,0.5
2023-03-10T01:18:59.144Z,0.5
2023-03-10T01:24:53.763Z,0.5
2023-03-10T01:30:47.522Z,0.3
2023-03-10T01:36:37.215Z,0.4
2023-03-10T01:42:27.372Z,0.3
2023-03-10T01:48:31.998Z,0.3
2023-03-10T01:54:25.284Z,0.4
2023-03-10T02:00:16.294Z,0.4
2023-03-10T02:06:11.236Z,0.4
2023-03-10T02:12:03.266Z,0.5
2023-03-10T02:17:54.044Z,0.4
2023-03-10T02:24:09.528Z,0.6
2023-03-10T02:30:08.347Z,0.7
2023-03-10T02:36:01.885Z,0.6
2023-03-10T02:41:53.716Z,0.8
2023-03-10T02:48:16.468Z,0.9
2023-03-10T02:54:09.765Z,0.9
2023-03-10T03:00:05.878Z,1.1
2023-03-10T03:06:03.866Z,1.2
2023-03-10T03:12:00.221Z,1.1
2023-03-10T03:17:53.716Z,1.5
2023-03-10T03:23:51.324Z,1.5
2023-03-10T03:29:48.623Z,1.5
2023-03-10T03:35:44.678Z,1.5
2023-03-10T03:41:37.924Z,1.3
2023-03-10T03:47:29.352Z,1.4
2023-03-10T03:53:20.860Z,1.7
2023-03-10T03:59:14.251Z,1.9
2023-03-10T04:05:06.698Z,1.7
2023-03-10T04:10:59.133Z,1.6
2023-03-10T04:17:02.962Z,1.7
2023-03-10T04:22:58.279Z,2
2023-03-10T04:28:56.234Z,1.7
2023-03-10T04:34:50.462Z,1.8
2023-03-10T04:40:44.429Z,1.9
2023-03-10T04:46:44.349Z,2.2
2023-03-10T04:52:36.098Z,1.9
2023-03-10T04:58:30.696Z,2
2023-03-10T05:04:34.601Z,1.9
2023-03-10T05:10:31.300Z,1.6
2023-03-10T05:16:28.957Z,2.1
2023-03-10T05:22:24.021Z,2.3
2023-03-10T05:40:09.197Z,2.1
2023-03-10T05:45:59.670Z,2
2023-03-10T05:51:55.890Z,2.3
2023-03-10T05:57:58.772Z,2.5
2023-03-10T06:03:54.617Z,2.2
2023-03-10T06:09:46.661Z,2.1
2023-03-10T06:15:41.784Z,2.5
2023-03-10T06:22:40.779Z,2.6
2023-03-10T06:28:31.227Z,2.4
2023-03-10T06:34:23.422Z,2.5
2023-03-10T06:40:14.515Z,2.6
2023-03-10T06:46:07.156Z,2.2
2023-03-10T06:51:58.984Z,2.6
2023-03-10T06:57:49.983Z,2.6
2023-03-10T07:03:43.346Z,2.4
2023-03-10T07:09:46.168Z,2.8
2023-03-10T07:15:37.099Z,2.5
2023-03-10T07:21:28.961Z,3.2
2023-03-10T07:27:20.314Z,2.7
2023-03-10T07:33:11.689Z,2.6
2023-03-10T07:39:01.384Z,2.7
2023-03-10T07:44:52.487Z,2.8
2023-03-10T07:50:42.692Z,2.8
2023-03-10T07:56:33.506Z,2.7
2023-03-10T08:02:24.575Z,2.8
2023-03-10T08:08:19.348Z,2.1
2023-03-10T08:14:10.216Z,1.7
2023-03-10T08:20:01.790Z,1.6
2023-03-10T08:25:52.686Z,1.7
2023-03-10T08:31:47.035Z,2
2023-03-10T08:37:38.679Z,2.1
2023-03-10T08:43:28.879Z,2
2023-03-10T08:49:19.801Z,2.1
2023-03-10T08:55:11.029Z,2.8
2023-03-10T09:01:03.091Z,2
2023-03-10T09:06:53.961Z,2
2023-03-10T09:12:48.204Z,1.8
2023-03-10T09:18:39.208Z,2.1
2023-03-10T09:24:30.063Z,1.5
2023-03-10T09:30:23.846Z,1.8
2023-03-10T09:36:19.106Z,2
2023-03-10T09:42:10.965Z,1.4
2023-03-10T09:48:05.355Z,1.5
2023-03-10T09:53:56.420Z,1.4
2023-03-10T09:59:49.303Z,1.4
2023-03-10T10:05:40.425Z,1.4
2023-03-10T10:11:31.626Z,1.8
2023-03-10T10:17:23.373Z,1.6
2023-03-10T10:23:14.794Z,1.5
2023-03-10T10:29:05.769Z,1.4
2023-03-10T10:34:56.821Z,1.3
2023-03-10T10:40:47.843Z,1.2
2023-03-10T10:46:38.279Z,1.4
2023-03-10T10:52:29.476Z,1
2023-03-10T10:58:20.041Z,0.8
2023-03-10T11:04:10.459Z,1.1
2023-03-10T11:10:01.804Z,1
2023-03-10T11:15:52.763Z,0.8
2023-03-10T11:21:43.637Z,0.7
2023-03-10T11:27:34.152Z,0.8
2023-03-10T11:33:25.239Z,1
2023-03-10T11:39:15.454Z,0.7
2023-03-10T11:45:06.213Z,0.6
2023-03-10T11:50:55.255Z,0.6
2023-03-10T11:56:44.680Z,0.6
2023-03-10T12:02:37.106Z,0.9
2023-03-10T12:08:27.765Z,1
2023-03-10T12:14:23.775Z,0.8
2023-03-10T12:20:19.924Z,0.6
2023-03-10T12:26:09.229Z,0.6
2023-03-10T12:32:00.020Z,0.7
2023-03-10T12:37:50.875Z,0.5
2023-03-10T12:43:43.675Z,0.7
2023-03-10T12:49:33.615Z,0.6
2023-03-10T12:55:24.542Z,0.5
2023-03-10T13:01:15.763Z,0.4
2023-03-10T13:07:06.922Z,0.3
2023-03-10T13:12:57.324Z,0.4
2023-03-10T13:18:48.018Z,0.4
2023-03-10T13:24:38.992Z,0.5
2023-03-10T13:30:30.805Z,0.3
2023-03-10T13:37:29.537Z,0.5
2023-03-10T13:43:20.797Z,0.5
2023-03-10T13:49:11.901Z,0.8
2023-03-10T13:55:03.817Z,0.4
2023-03-10T14:00:53.848Z,0.6
2023-03-10T14:06:44.136Z,0.3
2023-03-10T14:12:34.912Z,0.3
2023-03-10T14:18:25.550Z,0.3
2023-03-10T14:24:15.863Z,0.3
2023-03-10T14:30:06.991Z,0.2
2023-03-10T14:35:57.976Z,0.3
2023-03-10T14:41:49.104Z,0.2
2023-03-10T14:47:40.493Z,0.2
2023-03-10T14:53:36.420Z,0.3
2023-03-10T14:59:27.773Z,0.4
2023-03-10T15:05:18.273Z,0.5
2023-03-10T15:11:08.640Z,0.6
2023-03-10T15:16:59.137Z,0.8
2023-03-10T15:22:49.892Z,1.2
2023-03-10T15:28:42.205Z,1.2
2023-03-10T15:34:34.140Z,1.1
2023-03-10T15:40:38.957Z,0.8
2023-03-10T15:46:27.524Z,0.7
2023-03-10T15:52:18.344Z,0.9
2023-03-10T15:58:10.224Z,0.8
2023-03-10T16:04:01.109Z,1
2023-03-10T16:09:52.186Z,0.7
2023-03-10T16:15:43.367Z,0.9
2023-03-10T16:21:36.354Z,0.9
2023-03-10T16:27:27.242Z,0.6
2023-03-10T16:33:22.469Z,0.7
2023-03-10T16:39:12.654Z,0.6
2023-03-10T16:45:04.722Z,0.5
2023-03-10T16:50:55.591Z,0.3
2023-03-10T16:56:45.646Z,0.3
2023-03-10T17:02:36.423Z,0.3
2023-03-10T17:08:26.560Z,0.9
2023-03-10T17:14:16.819Z,1.6
2023-03-10T17:20:06.727Z,1.2
2023-03-10T17:26:00.368Z,1.3
2023-03-10T17:31:50.827Z,1.9
2023-03-10T17:37:42.489Z,5.3
2023-03-10T17:43:41.009Z,2.2
2023-03-10T17:49:30.813Z,2.2
2023-03-10T17:55:22.510Z,3.1
2023-03-10T18:01:13.738Z,4.7
2023-03-10T18:07:04.817Z,2.5
2023-03-10T18:12:55.733Z,3
2023-03-10T18:18:46.345Z,3.5
2023-03-10T18:24:36.822Z,3.7
2023-03-10T18:30:27.030Z,4.9
2023-03-10T18:36:17.721Z,4.2
2023-03-10T18:42:08.431Z,4.2
2023-03-10T18:47:59.919Z,3.6
2023-03-10T18:53:50.904Z,3.5
2023-03-10T18:59:42.585Z,3.9
2023-03-10T19:05:37.896Z,3.7
2023-03-10T19:11:27.275Z,8.7
2023-03-10T19:17:18.202Z,5.5
2023-03-10T19:23:12.234Z,6
2023-03-10T19:29:02.664Z,5.4
2023-03-10T19:34:52.866Z,5
2023-03-10T19:40:43.498Z,5.4
2023-03-10T19:46:37.843Z,4.1
2023-03-10T19:52:28.456Z,2.8
2023-03-10T19:58:19.915Z,2.7
2023-03-10T20:04:14.248Z,1.9
2023-03-10T20:10:04.982Z,2.1
2023-03-10T20:15:55.198Z,3.4
2023-03-10T20:21:49.893Z,3.7
2023-03-10T20:27:39.673Z,4.2
2023-03-10T20:33:30.818Z,4.6
2023-03-10T20:39:21.876Z,6.7
2023-03-10T20:45:11.781Z,4.9
2023-03-10T20:51:02.293Z,4.4
2023-03-10T20:56:52.314Z,4.3
2023-03-10T21:02:43.802Z,4.5
2023-03-10T21:08:36.545Z,5.1
2023-03-10T21:14:26.109Z,8.7
2023-03-10T21:20:16.405Z,5.9
2023-03-10T21:26:06.376Z,4.7
2023-03-10T21:31:57.256Z,3.9
2023-03-10T21:37:53.955Z,3.2
2023-03-10T21:43:43.255Z,3
2023-03-10T21:49:34.475Z,4
2023-03-10T21:55:25.440Z,3.5
2023-03-10T22:01:23.546Z,3.3
2023-03-10T22:07:16.419Z,3.5
2023-03-10T22:13:06.840Z,3.4
2023-03-10T22:18:56.588Z,5.7
2023-03-10T22:24:47.140Z,2.7
2023-03-10T22:30:37.401Z,3
2023-03-10T22:36:28.936Z,2.9
2023-03-10T22:42:18.540Z,2.3
2023-03-10T22:48:09.267Z,13.9
2023-03-10T22:54:00.431Z,2.4
2023-03-10T22:59:50.676Z,2.5
2023-03-10T23:05:41.461Z,2.6
2023-03-10T23:11:31.559Z,2.6
2023-03-10T23:17:21.286Z,3.1
2023-03-10T23:23:10.245Z,2.6
2023-03-10T23:29:04.753Z,2.6
2023-03-10T23:34:56.793Z,2.7
2023-03-10T23:40:54.331Z,2.6
2023-03-10T23:47:09.598Z,3
2023-03-10T23:53:25.011Z,2.9
2023-03-10T23:59:19.730Z,3
